Martin State Airport Baltimore US
ICAO: KMTN
IATA: MTN
Category: Medium
Scheduled Services: No

Elevation: 21 ft
TransAlt. 18000 ft.

Airport Communications:
POTOMAC APP/DEP:119
ATIS:124.925
AWOS 3:124.925
POTOMAC CLNC DEL:121.8
CTAF:121.3
GND:121.8
135 AG COMD POST:38.59
175 FG COMD POST:34.72
TWR:121.3
UNICOM:122.95

KMTN Zoom In..

If you have problems with the map follow the link
https://www.worldairports.se/pages/airport.php?
ICAO=KMTN

Runways:

(A) RW 15 length 6997 ft width 180 ft
LOC 110.70 / hdg 146

(B) RW 33 length 6997 ft width 180 ft
LOC 110.70 / hdg 326

Location; KMTN
Day. 24 / Time. 08.42 Zulu
* Altimeter: 29.73
* Temperature: 08° c. 46.4°f.
* Wind from: 140° Speed 13 kn.
Dewpoint: 08° c.
Visibility: 7 Statute Miles.
Clouds: Broken 400 ft.
Clouds: Overcast 900 ft.
Conditions: Light Rain.

KMTN 240842Z AUTO 14013KT 7SM -RA BKN004 OVC009 08/08 A2973 RMK AO2 P0003


Wind From 140°
Speed 13 kn.

 
 
jpsmedia.com for Web Design worldairports.se 2019   terms of use